sensor_id;sensor_type;location;lat;lon;timestamp;P1;durP1;ratioP1;P2;durP2;ratioP2
14748;SDS011;7466;53.574;9.976;2023-07-24T00:00:40;5.07;;;4.67;;
14748;SDS011;7466;53.574;9.976;2023-07-24T00:03:06;4.80;;;4.40;;
14748;SDS011;7466;53.574;9.976;2023-07-24T00:05:33;4.80;;;4.50;;
14748;SDS011;7466;53.574;9.976;2023-07-24T00:08:01;5.37;;;5.03;;
14748;SDS011;7466;53.574;9.976;2023-07-24T00:10:28;4.97;;;4.67;;
14748;SDS011;7466;53.574;9.976;2023-07-24T00:12:55;5.10;;;4.80;;
14748;SDS011;7466;53.574;9.976;2023-07-24T00:15:21;5.30;;;4.90;;
14748;SDS011;7466;53.574;9.976;2023-07-24T00:17:49;5.23;;;4.83;;
14748;SDS011;7466;53.574;9.976;2023-07-24T00:20:16;5.10;;;4.80;;
14748;SDS011;7466;53.574;9.976;2023-07-24T00:22:43;5.13;;;4.83;;
14748;SDS011;7466;53.574;9.976;2023-07-24T00:25:09;5.30;;;4.80;;
14748;SDS011;7466;53.574;9.976;2023-07-24T00:27:36;5.20;;;4.80;;
14748;SDS011;7466;53.574;9.976;2023-07-24T00:30:03;5.03;;;4.63;;
14748;SDS011;7466;53.574;9.976;2023-07-24T00:32:30;5.50;;;5.00;;
14748;SDS011;7466;53.574;9.976;2023-07-24T00:34:58;4.83;;;4.53;;
14748;SDS011;7466;53.574;9.976;2023-07-24T00:37:25;4.93;;;4.63;;
14748;SDS011;7466;53.574;9.976;2023-07-24T00:39:52;5.40;;;5.10;;
14748;SDS011;7466;53.574;9.976;2023-07-24T00:42:18;5.20;;;4.90;;
14748;SDS011;7466;53.574;9.976;2023-07-24T00:44:45;5.30;;;4.90;;
14748;SDS011;7466;53.574;9.976;2023-07-24T00:47:12;6.13;;;5.60;;
14748;SDS011;7466;53.574;9.976;2023-07-24T00:49:39;6.10;;;5.23;;
14748;SDS011;7466;53.574;9.976;2023-07-24T00:52:07;5.30;;;5.00;;
14748;SDS011;7466;53.574;9.976;2023-07-24T00:54:34;6.37;;;5.90;;
14748;SDS011;7466;53.574;9.976;2023-07-24T00:57:01;5.43;;;5.10;;
14748;SDS011;7466;53.574;9.976;2023-07-24T00:59:30;6.30;;;5.87;;
14748;SDS011;7466;53.574;9.976;2023-07-24T01:01:57;5.87;;;5.47;;
14748;SDS011;7466;53.574;9.976;2023-07-24T01:04:24;5.93;;;5.33;;
14748;SDS011;7466;53.574;9.976;2023-07-24T01:06:50;5.87;;;5.57;;
14748;SDS011;7466;53.574;9.976;2023-07-24T01:09:19;6.07;;;5.57;;
14748;SDS011;7466;53.574;9.976;2023-07-24T01:11:46;6.10;;;5.50;;
14748;SDS011;7466;53.574;9.976;2023-07-24T01:14:17;5.87;;;5.37;;
14748;SDS011;7466;53.574;9.976;2023-07-24T01:16:50;6.23;;;5.70;;
14748;SDS011;7466;53.574;9.976;2023-07-24T01:19:20;5.87;;;5.40;;
14748;SDS011;7466;53.574;9.976;2023-07-24T01:22:01;5.43;;;5.03;;
14748;SDS011;7466;53.574;9.976;2023-07-24T01:24:41;5.80;;;5.30;;
14748;SDS011;7466;53.574;9.976;2023-07-24T01:27:21;5.67;;;5.37;;
14748;SDS011;7466;53.574;9.976;2023-07-24T01:29:49;5.43;;;5.10;;
14748;SDS011;7466;53.574;9.976;2023-07-24T01:32:16;5.20;;;4.90;;
14748;SDS011;7466;53.574;9.976;2023-07-24T01:34:43;6.47;;;5.83;;
14748;SDS011;7466;53.574;9.976;2023-07-24T01:37:10;6.00;;;5.57;;
14748;SDS011;7466;53.574;9.976;2023-07-24T01:39:39;5.90;;;5.50;;
14748;SDS011;7466;53.574;9.976;2023-07-24T01:42:07;6.00;;;5.53;;
14748;SDS011;7466;53.574;9.976;2023-07-24T01:44:35;5.83;;;5.33;;
14748;SDS011;7466;53.574;9.976;2023-07-24T01:47:02;5.87;;;5.47;;
14748;SDS011;7466;53.574;9.976;2023-07-24T01:49:29;6.20;;;5.70;;
14748;SDS011;7466;53.574;9.976;2023-07-24T01:51:56;6.70;;;6.30;;
14748;SDS011;7466;53.574;9.976;2023-07-24T01:54:23;6.30;;;5.90;;
14748;SDS011;7466;53.574;9.976;2023-07-24T01:56:50;6.40;;;5.90;;
14748;SDS011;7466;53.574;9.976;2023-07-24T01:59:18;6.03;;;5.63;;
14748;SDS011;7466;53.574;9.976;2023-07-24T02:01:46;6.67;;;6.13;;
14748;SDS011;7466;53.574;9.976;2023-07-24T02:04:13;6.47;;;6.00;;
14748;SDS011;7466;53.574;9.976;2023-07-24T02:06:40;6.27;;;5.83;;
14748;SDS011;7466;53.574;9.976;2023-07-24T02:09:07;6.37;;;5.47;;
14748;SDS011;7466;53.574;9.976;2023-07-24T02:11:33;6.30;;;5.80;;
14748;SDS011;7466;53.574;9.976;2023-07-24T02:14:00;6.70;;;6.10;;
14748;SDS011;7466;53.574;9.976;2023-07-24T02:16:27;6.60;;;6.10;;
14748;SDS011;7466;53.574;9.976;2023-07-24T02:18:55;6.33;;;5.83;;
14748;SDS011;7466;53.574;9.976;2023-07-24T02:21:21;6.50;;;6.10;;
14748;SDS011;7466;53.574;9.976;2023-07-24T02:23:48;7.40;;;6.70;;
14748;SDS011;7466;53.574;9.976;2023-07-24T02:26:15;6.63;;;6.13;;
14748;SDS011;7466;53.574;9.976;2023-07-24T02:28:41;6.50;;;6.10;;
14748;SDS011;7466;53.574;9.976;2023-07-24T02:31:08;7.20;;;6.60;;
14748;SDS011;7466;53.574;9.976;2023-07-24T02:33:35;6.43;;;5.93;;
14748;SDS011;7466;53.574;9.976;2023-07-24T02:36:03;7.43;;;6.77;;
14748;SDS011;7466;53.574;9.976;2023-07-24T02:38:30;7.10;;;6.60;;
14748;SDS011;7466;53.574;9.976;2023-07-24T02:40:57;7.07;;;6.57;;
14748;SDS011;7466;53.574;9.976;2023-07-24T02:43:24;7.03;;;6.53;;
14748;SDS011;7466;53.574;9.976;2023-07-24T02:45:51;6.77;;;6.37;;
14748;SDS011;7466;53.574;9.976;2023-07-24T02:48:17;6.87;;;6.30;;
14748;SDS011;7466;53.574;9.976;2023-07-24T02:50:44;7.67;;;7.07;;
14748;SDS011;7466;53.574;9.976;2023-07-24T02:53:14;7.07;;;6.67;;
14748;SDS011;7466;53.574;9.976;2023-07-24T02:55:41;7.00;;;6.40;;
14748;SDS011;7466;53.574;9.976;2023-07-24T02:58:09;7.13;;;6.63;;
14748;SDS011;7466;53.574;9.976;2023-07-24T03:00:37;8.50;;;6.53;;
14748;SDS011;7466;53.574;9.976;2023-07-24T03:03:03;7.27;;;6.80;;
14748;SDS011;7466;53.574;9.976;2023-07-24T03:05:30;7.30;;;6.80;;
14748;SDS011;7466;53.574;9.976;2023-07-24T03:07:57;7.10;;;6.60;;
14748;SDS011;7466;53.574;9.976;2023-07-24T03:10:25;6.90;;;6.50;;
14748;SDS011;7466;53.574;9.976;2023-07-24T03:12:52;6.53;;;6.00;;
14748;SDS011;7466;53.574;9.976;2023-07-24T03:15:18;7.07;;;6.57;;
14748;SDS011;7466;53.574;9.976;2023-07-24T03:17:45;7.40;;;6.60;;
14748;SDS011;7466;53.574;9.976;2023-07-24T03:20:13;6.53;;;6.03;;
14748;SDS011;7466;53.574;9.976;2023-07-24T03:22:41;7.43;;;6.30;;
14748;SDS011;7466;53.574;9.976;2023-07-24T03:25:08;6.40;;;5.90;;
14748;SDS011;7466;53.574;9.976;2023-07-24T03:27:36;6.77;;;6.23;;
14748;SDS011;7466;53.574;9.976;2023-07-24T03:30:03;7.37;;;6.87;;
14748;SDS011;7466;53.574;9.976;2023-07-24T03:32:30;8.27;;;6.53;;
14748;SDS011;7466;53.574;9.976;2023-07-24T03:34:57;6.43;;;5.93;;
14748;SDS011;7466;53.574;9.976;2023-07-24T03:37:24;7.43;;;6.90;;
14748;SDS011;7466;53.574;9.976;2023-07-24T03:39:50;7.70;;;7.20;;
14748;SDS011;7466;53.574;9.976;2023-07-24T03:42:24;6.97;;;6.37;;
14748;SDS011;7466;53.574;9.976;2023-07-24T03:44:53;7.03;;;6.43;;
14748;SDS011;7466;53.574;9.976;2023-07-24T03:47:21;7.70;;;7.20;;
14748;SDS011;7466;53.574;9.976;2023-07-24T03:49:48;8.70;;;6.50;;
14748;SDS011;7466;53.574;9.976;2023-07-24T03:52:15;7.63;;;7.03;;
14748;SDS011;7466;53.574;9.976;2023-07-24T03:54:42;9.03;;;6.70;;
14748;SDS011;7466;53.574;9.976;2023-07-24T03:57:09;7.53;;;6.97;;
14748;SDS011;7466;53.574;9.976;2023-07-24T03:59:35;7.50;;;6.90;;
14748;SDS011;7466;53.574;9.976;2023-07-24T04:02:03;7.70;;;6.93;;
14748;SDS011;7466;53.574;9.976;2023-07-24T04:04:31;7.83;;;7.23;;
14748;SDS011;7466;53.574;9.976;2023-07-24T04:06:58;8.00;;;7.37;;
14748;SDS011;7466;53.574;9.976;2023-07-24T04:09:24;7.40;;;6.83;;
14748;SDS011;7466;53.574;9.976;2023-07-24T04:11:51;8.20;;;7.50;;
14748;SDS011;7466;53.574;9.976;2023-07-24T04:14:18;8.13;;;7.47;;
14748;SDS011;7466;53.574;9.976;2023-07-24T04:16:44;8.43;;;7.80;;
14748;SDS011;7466;53.574;9.976;2023-07-24T04:19:12;9.03;;;7.90;;
14748;SDS011;7466;53.574;9.976;2023-07-24T04:21:39;8.73;;;7.67;;
14748;SDS011;7466;53.574;9.976;2023-07-24T04:24:06;9.23;;;8.30;;
14748;SDS011;7466;53.574;9.976;2023-07-24T04:26:32;9.90;;;8.07;;
14748;SDS011;7466;53.574;9.976;2023-07-24T04:28:59;9.37;;;7.53;;
14748;SDS011;7466;53.574;9.976;2023-07-24T04:31:26;9.27;;;8.23;;
14748;SDS011;7466;53.574;9.976;2023-07-24T04:33:53;8.47;;;7.43;;
14748;SDS011;7466;53.574;9.976;2023-07-24T04:36:21;8.20;;;7.63;;
14748;SDS011;7466;53.574;9.976;2023-07-24T04:38:47;8.33;;;7.73;;
14748;SDS011;7466;53.574;9.976;2023-07-24T04:41:14;9.40;;;8.50;;
14748;SDS011;7466;53.574;9.976;2023-07-24T04:43:41;8.30;;;7.60;;
14748;SDS011;7466;53.574;9.976;2023-07-24T04:46:08;8.23;;;7.63;;
14748;SDS011;7466;53.574;9.976;2023-07-24T04:48:35;7.67;;;7.07;;
14748;SDS011;7466;53.574;9.976;2023-07-24T04:51:02;8.13;;;7.53;;
14748;SDS011;7466;53.574;9.976;2023-07-24T04:53:30;8.03;;;7.53;;
14748;SDS011;7466;53.574;9.976;2023-07-24T04:55:56;7.97;;;7.23;;
14748;SDS011;7466;53.574;9.976;2023-07-24T04:58:23;7.53;;;6.90;;
14748;SDS011;7466;53.574;9.976;2023-07-24T05:00:50;7.27;;;6.67;;
14748;SDS011;7466;53.574;9.976;2023-07-24T05:03:16;7.13;;;6.53;;
14748;SDS011;7466;53.574;9.976;2023-07-24T05:05:47;6.40;;;6.00;;
14748;SDS011;7466;53.574;9.976;2023-07-24T05:08:14;7.00;;;6.50;;
14748;SDS011;7466;53.574;9.976;2023-07-24T05:10:42;6.97;;;6.57;;
14748;SDS011;7466;53.574;9.976;2023-07-24T05:13:09;7.50;;;6.90;;
14748;SDS011;7466;53.574;9.976;2023-07-24T05:15:35;7.57;;;6.90;;
14748;SDS011;7466;53.574;9.976;2023-07-24T05:18:02;6.67;;;6.10;;
14748;SDS011;7466;53.574;9.976;2023-07-24T05:20:29;6.80;;;6.17;;
14748;SDS011;7466;53.574;9.976;2023-07-24T05:22:55;6.40;;;5.80;;
14748;SDS011;7466;53.574;9.976;2023-07-24T05:25:22;6.63;;;6.10;;
14748;SDS011;7466;53.574;9.976;2023-07-24T05:27:50;6.80;;;6.30;;
14748;SDS011;7466;53.574;9.976;2023-07-24T05:30:17;6.53;;;6.07;;
14748;SDS011;7466;53.574;9.976;2023-07-24T05:32:43;6.60;;;6.10;;
14748;SDS011;7466;53.574;9.976;2023-07-24T05:35:10;6.53;;;6.03;;
14748;SDS011;7466;53.574;9.976;2023-07-24T05:37:37;6.13;;;5.63;;
14748;SDS011;7466;53.574;9.976;2023-07-24T05:40:04;6.20;;;5.60;;
14748;SDS011;7466;53.574;9.976;2023-07-24T05:42:32;6.13;;;5.70;;
14748;SDS011;7466;53.574;9.976;2023-07-24T05:45:05;6.40;;;6.00;;
14748;SDS011;7466;53.574;9.976;2023-07-24T05:47:33;6.17;;;5.77;;
14748;SDS011;7466;53.574;9.976;2023-07-24T05:50:00;6.30;;;5.90;;
14748;SDS011;7466;53.574;9.976;2023-07-24T05:52:26;7.27;;;6.67;;
14748;SDS011;7466;53.574;9.976;2023-07-24T05:54:53;6.20;;;5.80;;
14748;SDS011;7466;53.574;9.976;2023-07-24T05:57:20;6.37;;;5.87;;
14748;SDS011;7466;53.574;9.976;2023-07-24T05:59:47;7.50;;;6.57;;
14748;SDS011;7466;53.574;9.976;2023-07-24T06:02:16;6.77;;;6.27;;
14748;SDS011;7466;53.574;9.976;2023-07-24T06:04:43;7.80;;;6.90;;
14748;SDS011;7466;53.574;9.976;2023-07-24T06:07:10;6.73;;;6.23;;
14748;SDS011;7466;53.574;9.976;2023-07-24T06:09:36;7.30;;;6.70;;
14748;SDS011;7466;53.574;9.976;2023-07-24T06:12:03;6.80;;;6.27;;
14748;SDS011;7466;53.574;9.976;2023-07-24T06:14:30;6.80;;;6.20;;
14748;SDS011;7466;53.574;9.976;2023-07-24T06:16:57;7.20;;;6.50;;
14748;SDS011;7466;53.574;9.976;2023-07-24T06:19:25;6.87;;;6.27;;
14748;SDS011;7466;53.574;9.976;2023-07-24T06:21:52;6.50;;;5.90;;
14748;SDS011;7466;53.574;9.976;2023-07-24T06:24:19;6.27;;;5.87;;
14748;SDS011;7466;53.574;9.976;2023-07-24T06:26:46;6.67;;;6.07;;
14748;SDS011;7466;53.574;9.976;2023-07-24T06:29:12;6.40;;;6.00;;
14748;SDS011;7466;53.574;9.976;2023-07-24T06:31:39;6.70;;;6.30;;
14748;SDS011;7466;53.574;9.976;2023-07-24T06:34:06;6.77;;;6.17;;
14748;SDS011;7466;53.574;9.976;2023-07-24T06:36:34;6.10;;;5.70;;
14748;SDS011;7466;53.574;9.976;2023-07-24T06:39:01;6.30;;;5.80;;
14748;SDS011;7466;53.574;9.976;2023-07-24T06:41:28;5.83;;;5.43;;
14748;SDS011;7466;53.574;9.976;2023-07-24T06:43:54;5.97;;;5.47;;
14748;SDS011;7466;53.574;9.976;2023-07-24T06:46:21;6.70;;;6.00;;
14748;SDS011;7466;53.574;9.976;2023-07-24T06:48:48;5.83;;;5.47;;
14748;SDS011;7466;53.574;9.976;2023-07-24T06:51:14;7.43;;;6.73;;
14748;SDS011;7466;53.574;9.976;2023-07-24T06:53:42;6.53;;;6.10;;
14748;SDS011;7466;53.574;9.976;2023-07-24T06:56:09;6.23;;;5.83;;
14748;SDS011;7466;53.574;9.976;2023-07-24T06:58:36;6.53;;;6.13;;
14748;SDS011;7466;53.574;9.976;2023-07-24T07:01:05;6.30;;;5.90;;
14748;SDS011;7466;53.574;9.976;2023-07-24T07:03:31;7.43;;;6.93;;
14748;SDS011;7466;53.574;9.976;2023-07-24T07:06:00;6.93;;;6.50;;
14748;SDS011;7466;53.574;9.976;2023-07-24T07:08:27;7.30;;;6.80;;
14748;SDS011;7466;53.574;9.976;2023-07-24T07:10:56;7.30;;;6.80;;
14748;SDS011;7466;53.574;9.976;2023-07-24T07:13:23;7.70;;;7.20;;
14748;SDS011;7466;53.574;9.976;2023-07-24T07:15:49;7.70;;;7.20;;
14748;SDS011;7466;53.574;9.976;2023-07-24T07:18:16;7.30;;;6.90;;
14748;SDS011;7466;53.574;9.976;2023-07-24T07:20:44;7.60;;;7.00;;
14748;SDS011;7466;53.574;9.976;2023-07-24T07:23:11;7.73;;;7.23;;
14748;SDS011;7466;53.574;9.976;2023-07-24T07:25:38;7.27;;;6.77;;
14748;SDS011;7466;53.574;9.976;2023-07-24T07:28:06;7.30;;;6.80;;
14748;SDS011;7466;53.574;9.976;2023-07-24T07:30:33;7.40;;;6.90;;
14748;SDS011;7466;53.574;9.976;2023-07-24T07:32:59;7.20;;;6.50;;
14748;SDS011;7466;53.574;9.976;2023-07-24T07:35:26;7.23;;;6.63;;
14748;SDS011;7466;53.574;9.976;2023-07-24T07:37:53;7.37;;;6.37;;
14748;SDS011;7466;53.574;9.976;2023-07-24T07:40:20;6.77;;;6.37;;
14748;SDS011;7466;53.574;9.976;2023-07-24T07:42:48;6.30;;;5.90;;
14748;SDS011;7466;53.574;9.976;2023-07-24T07:45:16;7.10;;;6.60;;
14748;SDS011;7466;53.574;9.976;2023-07-24T07:47:43;7.20;;;6.60;;
14748;SDS011;7466;53.574;9.976;2023-07-24T07:50:10;6.77;;;6.33;;
14748;SDS011;7466;53.574;9.976;2023-07-24T07:52:37;7.00;;;6.60;;
14748;SDS011;7466;53.574;9.976;2023-07-24T07:55:04;7.33;;;6.83;;
14748;SDS011;7466;53.574;9.976;2023-07-24T07:57:32;6.90;;;6.43;;
14748;SDS011;7466;53.574;9.976;2023-07-24T08:00:00;7.10;;;6.60;;
14748;SDS011;7466;53.574;9.976;2023-07-24T08:02:28;7.70;;;7.10;;
14748;SDS011;7466;53.574;9.976;2023-07-24T08:04:55;6.70;;;6.23;;
14748;SDS011;7466;53.574;9.976;2023-07-24T08:07:22;7.53;;;6.83;;
14748;SDS011;7466;53.574;9.976;2023-07-24T08:09:48;7.07;;;6.67;;
14748;SDS011;7466;53.574;9.976;2023-07-24T08:12:15;6.90;;;6.50;;
14748;SDS011;7466;53.574;9.976;2023-07-24T08:14:42;7.30;;;6.90;;
14748;SDS011;7466;53.574;9.976;2023-07-24T08:17:09;7.30;;;6.90;;
14748;SDS011;7466;53.574;9.976;2023-07-24T08:19:37;7.53;;;7.03;;
14748;SDS011;7466;53.574;9.976;2023-07-24T08:22:04;7.97;;;7.30;;
14748;SDS011;7466;53.574;9.976;2023-07-24T08:24:33;7.67;;;6.97;;
14748;SDS011;7466;53.574;9.976;2023-07-24T08:27:00;7.30;;;6.80;;
14748;SDS011;7466;53.574;9.976;2023-07-24T08:29:26;7.80;;;7.20;;
14748;SDS011;7466;53.574;9.976;2023-07-24T08:31:53;8.43;;;7.93;;
14748;SDS011;7466;53.574;9.976;2023-07-24T08:34:20;7.70;;;7.20;;
14748;SDS011;7466;53.574;9.976;2023-07-24T08:36:49;8.10;;;7.53;;
14748;SDS011;7466;53.574;9.976;2023-07-24T08:39:16;7.33;;;6.90;;
14748;SDS011;7466;53.574;9.976;2023-07-24T08:41:42;7.93;;;7.33;;
14748;SDS011;7466;53.574;9.976;2023-07-24T08:44:09;7.73;;;7.23;;
14748;SDS011;7466;53.574;9.976;2023-07-24T08:46:37;8.53;;;7.93;;
14748;SDS011;7466;53.574;9.976;2023-07-24T08:49:06;8.27;;;7.73;;
14748;SDS011;7466;53.574;9.976;2023-07-24T08:51:37;8.67;;;7.90;;
14748;SDS011;7466;53.574;9.976;2023-07-24T08:54:05;8.13;;;7.63;;
14748;SDS011;7466;53.574;9.976;2023-07-24T08:56:32;7.60;;;7.10;;
14748;SDS011;7466;53.574;9.976;2023-07-24T08:58:59;7.40;;;7.00;;
14748;SDS011;7466;53.574;9.976;2023-07-24T09:01:26;7.30;;;6.90;;
14748;SDS011;7466;53.574;9.976;2023-07-24T09:03:53;7.40;;;6.87;;
14748;SDS011;7466;53.574;9.976;2023-07-24T09:06:19;7.60;;;7.07;;
14748;SDS011;7466;53.574;9.976;2023-07-24T09:08:46;7.30;;;6.90;;
14748;SDS011;7466;53.574;9.976;2023-07-24T09:11:15;7.77;;;7.27;;
14748;SDS011;7466;53.574;9.976;2023-07-24T09:13:42;7.07;;;6.67;;
14748;SDS011;7466;53.574;9.976;2023-07-24T09:16:09;7.37;;;6.87;;
14748;SDS011;7466;53.574;9.976;2023-07-24T09:18:47;7.40;;;6.73;;
14748;SDS011;7466;53.574;9.976;2023-07-24T09:21:14;6.57;;;5.97;;
14748;SDS011;7466;53.574;9.976;2023-07-24T09:23:42;7.40;;;6.70;;
14748;SDS011;7466;53.574;9.976;2023-07-24T09:26:08;7.20;;;6.70;;
14748;SDS011;7466;53.574;9.976;2023-07-24T09:28:37;7.80;;;7.30;;
14748;SDS011;7466;53.574;9.976;2023-07-24T09:31:03;8.57;;;7.97;;
14748;SDS011;7466;53.574;9.976;2023-07-24T09:33:34;8.80;;;8.20;;
14748;SDS011;7466;53.574;9.976;2023-07-24T09:36:02;8.43;;;7.73;;
14748;SDS011;7466;53.574;9.976;2023-07-24T09:38:30;9.03;;;8.10;;
14748;SDS011;7466;53.574;9.976;2023-07-24T09:40:57;8.47;;;7.77;;
14748;SDS011;7466;53.574;9.976;2023-07-24T09:43:24;8.40;;;7.73;;
14748;SDS011;7466;53.574;9.976;2023-07-24T09:45:54;7.20;;;6.60;;
14748;SDS011;7466;53.574;9.976;2023-07-24T09:48:23;7.67;;;7.03;;
14748;SDS011;7466;53.574;9.976;2023-07-24T09:50:52;8.17;;;7.43;;
14748;SDS011;7466;53.574;9.976;2023-07-24T09:53:20;7.53;;;7.00;;
14748;SDS011;7466;53.574;9.976;2023-07-24T09:55:51;7.33;;;6.63;;
14748;SDS011;7466;53.574;9.976;2023-07-24T09:58:22;7.33;;;6.63;;
14748;SDS011;7466;53.574;9.976;2023-07-24T10:00:50;6.83;;;6.23;;
14748;SDS011;7466;53.574;9.976;2023-07-24T10:03:19;6.70;;;6.13;;
14748;SDS011;7466;53.574;9.976;2023-07-24T10:05:48;6.37;;;5.97;;
14748;SDS011;7466;53.574;9.976;2023-07-24T10:08:17;7.20;;;6.70;;
14748;SDS011;7466;53.574;9.976;2023-07-24T10:10:45;7.60;;;7.10;;
14748;SDS011;7466;53.574;9.976;2023-07-24T10:13:12;7.50;;;6.90;;
14748;SDS011;7466;53.574;9.976;2023-07-24T10:15:40;6.90;;;6.40;;
14748;SDS011;7466;53.574;9.976;2023-07-24T10:18:08;7.17;;;6.67;;
14748;SDS011;7466;53.574;9.976;2023-07-24T10:20:37;7.77;;;7.07;;
14748;SDS011;7466;53.574;9.976;2023-07-24T10:23:06;8.67;;;8.00;;
14748;SDS011;7466;53.574;9.976;2023-07-24T10:25:35;6.93;;;6.53;;
14748;SDS011;7466;53.574;9.976;2023-07-24T10:28:06;6.93;;;6.43;;
14748;SDS011;7466;53.574;9.976;2023-07-24T10:30:36;7.20;;;6.70;;
14748;SDS011;7466;53.574;9.976;2023-07-24T10:33:03;7.03;;;6.57;;
14748;SDS011;7466;53.574;9.976;2023-07-24T10:35:42;6.97;;;6.37;;
14748;SDS011;7466;53.574;9.976;2023-07-24T10:38:11;7.37;;;6.80;;
14748;SDS011;7466;53.574;9.976;2023-07-24T10:40:39;7.37;;;6.87;;
14748;SDS011;7466;53.574;9.976;2023-07-24T10:43:07;7.07;;;6.57;;
14748;SDS011;7466;53.574;9.976;2023-07-24T10:48:24;6.83;;;6.37;;
14748;SDS011;7466;53.574;9.976;2023-07-24T10:50:53;6.67;;;6.17;;
14748;SDS011;7466;53.574;9.976;2023-07-24T10:53:20;6.50;;;6.00;;
14748;SDS011;7466;53.574;9.976;2023-07-24T10:55:48;7.07;;;6.47;;
14748;SDS011;7466;53.574;9.976;2023-07-24T10:58:16;6.60;;;6.20;;
14748;SDS011;7466;53.574;9.976;2023-07-24T11:00:43;6.33;;;5.93;;
14748;SDS011;7466;53.574;9.976;2023-07-24T11:03:10;6.30;;;5.80;;
14748;SDS011;7466;53.574;9.976;2023-07-24T11:05:38;6.83;;;6.33;;
14748;SDS011;7466;53.574;9.976;2023-07-24T11:08:09;6.50;;;5.90;;
14748;SDS011;7466;53.574;9.976;2023-07-24T11:10:43;6.50;;;6.10;;
14748;SDS011;7466;53.574;9.976;2023-07-24T11:13:11;6.78;;;6.28;;
14748;SDS011;7466;53.574;9.976;2023-07-24T11:15:37;5.82;;;5.40;;
14748;SDS011;7466;53.574;9.976;2023-07-24T11:18:04;6.00;;;5.53;;
14748;SDS011;7466;53.574;9.976;2023-07-24T11:20:33;6.07;;;5.65;;
14748;SDS011;7466;53.574;9.976;2023-07-24T11:23:02;6.22;;;5.65;;
14748;SDS011;7466;53.574;9.976;2023-07-24T11:25:31;5.97;;;5.57;;
14748;SDS011;7466;53.574;9.976;2023-07-24T11:27:58;5.72;;;5.03;;
14748;SDS011;7466;53.574;9.976;2023-07-24T11:30:25;5.32;;;4.93;;
14748;SDS011;7466;53.574;9.976;2023-07-24T11:32:51;6.05;;;5.65;;
14748;SDS011;7466;53.574;9.976;2023-07-24T11:35:19;6.30;;;5.90;;
14748;SDS011;7466;53.574;9.976;2023-07-24T11:37:46;5.65;;;5.25;;
14748;SDS011;7466;53.574;9.976;2023-07-24T11:40:13;5.85;;;5.43;;
14748;SDS011;7466;53.574;9.976;2023-07-24T11:42:42;6.07;;;5.68;;
14748;SDS011;7466;53.574;9.976;2023-07-24T11:45:09;5.93;;;5.45;;
14748;SDS011;7466;53.574;9.976;2023-07-24T11:47:42;6.03;;;5.63;;
14748;SDS011;7466;53.574;9.976;2023-07-24T11:50:10;6.43;;;6.05;;
14748;SDS011;7466;53.574;9.976;2023-07-24T11:52:38;6.35;;;5.95;;
14748;SDS011;7466;53.574;9.976;2023-07-24T11:55:06;6.53;;;6.13;;
14748;SDS011;7466;53.574;9.976;2023-07-24T11:57:33;6.25;;;5.85;;
14748;SDS011;7466;53.574;9.976;2023-07-24T12:00:01;6.80;;;6.20;;
14748;SDS011;7466;53.574;9.976;2023-07-24T12:02:29;6.20;;;5.80;;
14748;SDS011;7466;53.574;9.976;2023-07-24T12:04:58;6.28;;;5.85;;
14748;SDS011;7466;53.574;9.976;2023-07-24T12:07:29;6.18;;;5.80;;
14748;SDS011;7466;53.574;9.976;2023-07-24T12:09:57;6.63;;;6.22;;
14748;SDS011;7466;53.574;9.976;2023-07-24T12:12:24;5.72;;;5.38;;
14748;SDS011;7466;53.574;9.976;2023-07-24T12:14:51;6.50;;;6.00;;
14748;SDS011;7466;53.574;9.976;2023-07-24T12:17:19;6.40;;;5.95;;
14748;SDS011;7466;53.574;9.976;2023-07-24T12:19:46;6.28;;;5.88;;
14748;SDS011;7466;53.574;9.976;2023-07-24T12:22:13;6.05;;;5.75;;
14748;SDS011;7466;53.574;9.976;2023-07-24T12:24:40;5.32;;;5.03;;
14748;SDS011;7466;53.574;9.976;2023-07-24T12:27:06;5.60;;;5.20;;
14748;SDS011;7466;53.574;9.976;2023-07-24T12:29:33;5.60;;;5.18;;
14748;SDS011;7466;53.574;9.976;2023-07-24T12:32:00;5.68;;;5.28;;
14748;SDS011;7466;53.574;9.976;2023-07-24T12:34:28;5.35;;;5.05;;
14748;SDS011;7466;53.574;9.976;2023-07-24T12:36:55;5.82;;;5.18;;
14748;SDS011;7466;53.574;9.976;2023-07-24T12:39:21;5.32;;;4.95;;
14748;SDS011;7466;53.574;9.976;2023-07-24T12:41:48;5.63;;;5.22;;
14748;SDS011;7466;53.574;9.976;2023-07-24T12:44:15;5.78;;;5.22;;
14748;SDS011;7466;53.574;9.976;2023-07-24T12:46:41;5.40;;;5.10;;
14748;SDS011;7466;53.574;9.976;2023-07-24T12:49:08;4.82;;;4.43;;
14748;SDS011;7466;53.574;9.976;2023-07-24T12:51:36;4.95;;;4.65;;
14748;SDS011;7466;53.574;9.976;2023-07-24T12:54:03;4.22;;;3.92;;
14748;SDS011;7466;53.574;9.976;2023-07-24T12:56:29;4.95;;;4.65;;
14748;SDS011;7466;53.574;9.976;2023-07-24T12:58:56;3.92;;;3.72;;
14748;SDS011;7466;53.574;9.976;2023-07-24T13:01:23;4.15;;;3.95;;
14748;SDS011;7466;53.574;9.976;2023-07-24T13:03:50;5.05;;;4.70;;
14748;SDS011;7466;53.574;9.976;2023-07-24T13:06:16;4.50;;;4.20;;
14748;SDS011;7466;53.574;9.976;2023-07-24T13:08:44;4.55;;;4.30;;
14748;SDS011;7466;53.574;9.976;2023-07-24T13:11:11;4.63;;;4.32;;
14748;SDS011;7466;53.574;9.976;2023-07-24T13:13:38;4.43;;;4.22;;
14748;SDS011;7466;53.574;9.976;2023-07-24T13:16:05;4.50;;;4.20;;
14748;SDS011;7466;53.574;9.976;2023-07-24T13:18:32;4.10;;;3.90;;
14748;SDS011;7466;53.574;9.976;2023-07-24T13:20:58;5.70;;;3.95;;
14748;SDS011;7466;53.574;9.976;2023-07-24T13:23:25;4.03;;;3.83;;
14748;SDS011;7466;53.574;9.976;2023-07-24T13:25:53;3.90;;;3.70;;
14748;SDS011;7466;53.574;9.976;2023-07-24T13:28:20;4.00;;;3.80;;
14748;SDS011;7466;53.574;9.976;2023-07-24T13:30:46;4.40;;;3.88;;
14748;SDS011;7466;53.574;9.976;2023-07-24T13:33:13;4.00;;;3.80;;
14748;SDS011;7466;53.574;9.976;2023-07-24T13:35:40;3.70;;;3.50;;
14748;SDS011;7466;53.574;9.976;2023-07-24T13:38:07;3.90;;;3.70;;
14748;SDS011;7466;53.574;9.976;2023-07-24T13:40:34;3.55;;;3.35;;
14748;SDS011;7466;53.574;9.976;2023-07-24T13:43:02;3.88;;;3.60;;
14748;SDS011;7466;53.574;9.976;2023-07-24T13:45:30;4.00;;;3.80;;
14748;SDS011;7466;53.574;9.976;2023-07-24T13:47:57;3.20;;;3.10;;
14748;SDS011;7466;53.574;9.976;2023-07-24T13:50:24;3.38;;;3.17;;
14748;SDS011;7466;53.574;9.976;2023-07-24T13:52:50;3.72;;;3.53;;
14748;SDS011;7466;53.574;9.976;2023-07-24T13:55:17;3.70;;;3.47;;
14748;SDS011;7466;53.574;9.976;2023-07-24T13:57:44;4.43;;;4.05;;
14748;SDS011;7466;53.574;9.976;2023-07-24T14:00:12;4.80;;;4.50;;
14748;SDS011;7466;53.574;9.976;2023-07-24T14:02:39;4.97;;;4.68;;
14748;SDS011;7466;53.574;9.976;2023-07-24T14:05:07;5.00;;;4.70;;
14748;SDS011;7466;53.574;9.976;2023-07-24T14:07:34;4.45;;;4.22;;
14748;SDS011;7466;53.574;9.976;2023-07-24T14:10:01;4.38;;;4.18;;
14748;SDS011;7466;53.574;9.976;2023-07-24T14:12:27;4.10;;;3.90;;
14748;SDS011;7466;53.574;9.976;2023-07-24T14:14:54;4.80;;;4.40;;
14748;SDS011;7466;53.574;9.976;2023-07-24T14:17:22;6.88;;;4.53;;
14748;SDS011;7466;53.574;9.976;2023-07-24T14:19:49;4.40;;;4.20;;
14748;SDS011;7466;53.574;9.976;2023-07-24T14:22:15;4.88;;;4.57;;
14748;SDS011;7466;53.574;9.976;2023-07-24T14:24:42;4.38;;;3.97;;
14748;SDS011;7466;53.574;9.976;2023-07-24T14:27:09;4.38;;;4.07;;
14748;SDS011;7466;53.574;9.976;2023-07-24T14:29:35;5.03;;;4.63;;
14748;SDS011;7466;53.574;9.976;2023-07-24T14:32:02;4.53;;;4.25;;
14748;SDS011;7466;53.574;9.976;2023-07-24T14:34:31;5.13;;;4.72;;
14748;SDS011;7466;53.574;9.976;2023-07-24T14:36:57;4.57;;;4.18;;
14748;SDS011;7466;53.574;9.976;2023-07-24T14:39:24;4.35;;;4.05;;
14748;SDS011;7466;53.574;9.976;2023-07-24T14:41:51;4.75;;;4.32;;
14748;SDS011;7466;53.574;9.976;2023-07-24T14:44:18;5.07;;;4.68;;
14748;SDS011;7466;53.574;9.976;2023-07-24T14:46:45;4.53;;;4.30;;
14748;SDS011;7466;53.574;9.976;2023-07-24T14:49:11;5.28;;;4.88;;
14748;SDS011;7466;53.574;9.976;2023-07-24T14:51:39;5.97;;;5.57;;
14748;SDS011;7466;53.574;9.976;2023-07-24T14:54:06;5.85;;;5.35;;
14748;SDS011;7466;53.574;9.976;2023-07-24T14:56:33;5.43;;;5.10;;
14748;SDS011;7466;53.574;9.976;2023-07-24T14:58:59;5.20;;;4.80;;
14748;SDS011;7466;53.574;9.976;2023-07-24T15:01:26;5.30;;;5.00;;
14748;SDS011;7466;53.574;9.976;2023-07-24T15:03:54;5.28;;;4.82;;